• Join FlightAware (Why Join?)
  • Login
  • US Flag 
02:49PM EDT


 

Airport Tracker/Info


-or-


 

Live Flight TrackerFlight Track Log ✈ EJA941 ✈ 12-Aug-2013 ✈ KBOS - KACK

Flight Track Log - Related Links

Times and Time Zones

All times are in EDT time to prevent confusion due to time zone crossing. See the EJA941 flight status page for this flight to view local times or setup timezone preferences in your user account.

Time Position Orientation Groundspeed Altitude Reporting Facility
EDT Latitude Longitude Course Direction KTS MPH feet Rate Location/Type
11:59AM 42.3167 -70.9167 124° Southeast 248 285 7,800  Level KA90
12:00PM 42.3167 -70.8167 90° East 304 350 9,000 1,140 Climbing KA90
12:02PM 42.2639 -70.7249 114° Southeast  Level FlightAware Approximate
12:09PM 42.0387 -70.0920 117° Southeast  Level FlightAware Approximate
12:10PM 41.9912 -70.0333 180° South  Level FlightAware Approximate
12:11PM 41.9168 -70.0333 180° South  Level FlightAware Approximate
12:12PM 41.8425 -70.0333 180° South  Level FlightAware Approximate
12:13PM 41.7681 -70.0333 180° South  Level FlightAware Approximate
12:14PM 41.6937 -70.0333 180° South  Level FlightAware Approximate
12:15PM 41.6195 -70.0353 186° South  Level FlightAware Approximate
12:16PM 41.5455 -70.0459 186° South  Level FlightAware Approximate
12:17PM 41.4713 -70.0500 180° South  Level FlightAware Approximate
12:18PM 41.3970 -70.0500 180° South  Level FlightAware Approximate
12:19PM 41.3226 -70.0500 180° South  Level FlightAware Approximate
12:20PM 41.2500 -70.0500 180° South  Level FlightAware Approximate
12:21PM 41.2531 -70.0603 180° South  Level Estimated
12:22PM 41.2531 -70.0603 180° South  Level Estimated
12:23PM 41.2531 -70.0603 180° South  Level Estimated
12:24PM 41.2531 -70.0603 180° South  Level Estimated
12:25PM 41.2531 -70.0603 180° South  Level Estimated
12:26PM 41.2531 -70.0603 180° South  Level Estimated
12:27PM 41.2531 -70.0603 180° South  Level Estimated